sensor_id;sensor_type;location;lat;lon;timestamp;P1;durP1;ratioP1;P2;durP2;ratioP2
81382;SDS011;70834;37.534;-122.308;2023-07-31T00:01:12;10.82;;;3.92;;
81382;SDS011;70834;37.534;-122.308;2023-07-31T00:03:33;11.75;;;4.20;;
81382;SDS011;70834;37.534;-122.308;2023-07-31T00:05:55;10.40;;;3.70;;
81382;SDS011;70834;37.534;-122.308;2023-07-31T00:08:16;10.88;;;3.72;;
81382;SDS011;70834;37.534;-122.308;2023-07-31T00:10:38;10.93;;;4.53;;
81382;SDS011;70834;37.534;-122.308;2023-07-31T00:12:59;9.00;;;4.65;;
81382;SDS011;70834;37.534;-122.308;2023-07-31T00:15:20;12.80;;;5.25;;
81382;SDS011;70834;37.534;-122.308;2023-07-31T00:17:42;11.25;;;4.00;;
81382;SDS011;70834;37.534;-122.308;2023-07-31T00:20:03;10.18;;;4.40;;
81382;SDS011;70834;37.534;-122.308;2023-07-31T00:22:25;11.48;;;3.63;;
81382;SDS011;70834;37.534;-122.308;2023-07-31T00:24:47;11.18;;;4.32;;
81382;SDS011;70834;37.534;-122.308;2023-07-31T00:27:08;11.00;;;4.05;;
81382;SDS011;70834;37.534;-122.308;2023-07-31T00:29:30;10.05;;;4.00;;
81382;SDS011;70834;37.534;-122.308;2023-07-31T00:31:51;9.98;;;4.10;;
81382;SDS011;70834;37.534;-122.308;2023-07-31T00:34:12;9.55;;;3.92;;
81382;SDS011;70834;37.534;-122.308;2023-07-31T00:36:34;13.40;;;4.90;;
81382;SDS011;70834;37.534;-122.308;2023-07-31T00:38:55;10.68;;;4.40;;
81382;SDS011;70834;37.534;-122.308;2023-07-31T00:41:17;10.88;;;4.80;;
81382;SDS011;70834;37.534;-122.308;2023-07-31T00:43:38;11.52;;;4.53;;
81382;SDS011;70834;37.534;-122.308;2023-07-31T00:46:00;12.05;;;4.25;;
81382;SDS011;70834;37.534;-122.308;2023-07-31T00:48:21;11.50;;;4.32;;
81382;SDS011;70834;37.534;-122.308;2023-07-31T00:50:43;10.02;;;4.28;;
81382;SDS011;70834;37.534;-122.308;2023-07-31T00:53:05;10.18;;;5.03;;
81382;SDS011;70834;37.534;-122.308;2023-07-31T00:55:27;13.60;;;4.78;;
81382;SDS011;70834;37.534;-122.308;2023-07-31T00:57:48;11.77;;;5.25;;
81382;SDS011;70834;37.534;-122.308;2023-07-31T01:00:12;11.60;;;4.53;;
81382;SDS011;70834;37.534;-122.308;2023-07-31T01:02:34;15.57;;;5.25;;
81382;SDS011;70834;37.534;-122.308;2023-07-31T01:04:56;13.88;;;5.22;;
81382;SDS011;70834;37.534;-122.308;2023-07-31T01:12:21;11.30;;;4.95;;
81382;SDS011;70834;37.534;-122.308;2023-07-31T01:14:51;10.07;;;4.93;;
81382;SDS011;70834;37.534;-122.308;2023-07-31T01:17:26;11.65;;;4.88;;
81382;SDS011;70834;37.534;-122.308;2023-07-31T01:19:47;10.73;;;4.65;;
81382;SDS011;70834;37.534;-122.308;2023-07-31T01:23:18;13.13;;;4.97;;
81382;SDS011;70834;37.534;-122.308;2023-07-31T01:27:56;11.40;;;4.53;;
81382;SDS011;70834;37.534;-122.308;2023-07-31T01:30:22;11.75;;;4.75;;
81382;SDS011;70834;37.534;-122.308;2023-07-31T01:32:48;11.77;;;5.43;;
81382;SDS011;70834;37.534;-122.308;2023-07-31T01:35:11;15.05;;;5.90;;
81382;SDS011;70834;37.534;-122.308;2023-07-31T01:37:33;13.70;;;5.50;;
81382;SDS011;70834;37.534;-122.308;2023-07-31T01:39:54;14.98;;;7.97;;
81382;SDS011;70834;37.534;-122.308;2023-07-31T01:42:16;14.77;;;5.25;;
81382;SDS011;70834;37.534;-122.308;2023-07-31T01:44:37;11.77;;;5.35;;
81382;SDS011;70834;37.534;-122.308;2023-07-31T01:46:59;19.00;;;7.82;;
81382;SDS011;70834;37.534;-122.308;2023-07-31T01:49:20;18.30;;;6.00;;
81382;SDS011;70834;37.534;-122.308;2023-07-31T01:51:42;14.13;;;5.97;;
81382;SDS011;70834;37.534;-122.308;2023-07-31T01:54:03;19.05;;;5.97;;
81382;SDS011;70834;37.534;-122.308;2023-07-31T01:56:25;17.15;;;6.45;;
81382;SDS011;70834;37.534;-122.308;2023-07-31T01:58:47;12.50;;;5.28;;
81382;SDS011;70834;37.534;-122.308;2023-07-31T02:01:08;16.88;;;5.63;;
81382;SDS011;70834;37.534;-122.308;2023-07-31T02:03:29;13.50;;;5.85;;
81382;SDS011;70834;37.534;-122.308;2023-07-31T02:05:51;17.25;;;5.97;;
81382;SDS011;70834;37.534;-122.308;2023-07-31T02:08:15;17.40;;;5.97;;
81382;SDS011;70834;37.534;-122.308;2023-07-31T02:10:37;17.08;;;6.88;;
81382;SDS011;70834;37.534;-122.308;2023-07-31T02:12:58;17.48;;;6.10;;
81382;SDS011;70834;37.534;-122.308;2023-07-31T02:15:19;15.65;;;6.97;;
81382;SDS011;70834;37.534;-122.308;2023-07-31T02:17:41;18.38;;;6.55;;
81382;SDS011;70834;37.534;-122.308;2023-07-31T02:20:03;15.70;;;6.70;;
81382;SDS011;70834;37.534;-122.308;2023-07-31T02:22:25;17.65;;;6.53;;
81382;SDS011;70834;37.534;-122.308;2023-07-31T02:24:46;16.42;;;6.65;;
81382;SDS011;70834;37.534;-122.308;2023-07-31T02:27:07;16.08;;;6.22;;
81382;SDS011;70834;37.534;-122.308;2023-07-31T02:29:29;16.20;;;6.55;;
81382;SDS011;70834;37.534;-122.308;2023-07-31T02:31:50;18.67;;;6.78;;
81382;SDS011;70834;37.534;-122.308;2023-07-31T02:34:12;18.95;;;7.00;;
81382;SDS011;70834;37.534;-122.308;2023-07-31T02:36:33;18.73;;;6.72;;
81382;SDS011;70834;37.534;-122.308;2023-07-31T02:38:54;17.92;;;6.63;;
81382;SDS011;70834;37.534;-122.308;2023-07-31T02:41:16;18.20;;;6.55;;
81382;SDS011;70834;37.534;-122.308;2023-07-31T02:43:37;18.10;;;6.28;;
81382;SDS011;70834;37.534;-122.308;2023-07-31T02:45:59;16.27;;;7.10;;
81382;SDS011;70834;37.534;-122.308;2023-07-31T02:48:21;17.52;;;6.68;;
81382;SDS011;70834;37.534;-122.308;2023-07-31T02:50:42;19.27;;;7.20;;
81382;SDS011;70834;37.534;-122.308;2023-07-31T02:53:04;16.83;;;5.93;;
81382;SDS011;70834;37.534;-122.308;2023-07-31T02:55:25;23.88;;;8.27;;
81382;SDS011;70834;37.534;-122.308;2023-07-31T02:57:46;21.10;;;7.80;;
81382;SDS011;70834;37.534;-122.308;2023-07-31T03:00:08;19.35;;;6.78;;
81382;SDS011;70834;37.534;-122.308;2023-07-31T03:02:29;21.55;;;7.75;;
81382;SDS011;70834;37.534;-122.308;2023-07-31T03:04:51;23.92;;;9.65;;
81382;SDS011;70834;37.534;-122.308;2023-07-31T03:07:12;21.90;;;8.20;;
81382;SDS011;70834;37.534;-122.308;2023-07-31T03:09:34;20.90;;;7.25;;
81382;SDS011;70834;37.534;-122.308;2023-07-31T03:11:55;18.67;;;7.28;;
81382;SDS011;70834;37.534;-122.308;2023-07-31T03:14:17;13.68;;;6.60;;
81382;SDS011;70834;37.534;-122.308;2023-07-31T03:16:38;20.25;;;6.70;;
81382;SDS011;70834;37.534;-122.308;2023-07-31T03:19:00;23.77;;;7.72;;
81382;SDS011;70834;37.534;-122.308;2023-07-31T03:21:21;18.88;;;6.93;;
81382;SDS011;70834;37.534;-122.308;2023-07-31T03:23:42;21.38;;;7.20;;
81382;SDS011;70834;37.534;-122.308;2023-07-31T03:26:05;25.52;;;8.50;;
81382;SDS011;70834;37.534;-122.308;2023-07-31T03:28:27;18.35;;;6.53;;
81382;SDS011;70834;37.534;-122.308;2023-07-31T03:30:49;17.45;;;6.57;;
81382;SDS011;70834;37.534;-122.308;2023-07-31T03:33:11;28.17;;;7.65;;
81382;SDS011;70834;37.534;-122.308;2023-07-31T03:35:33;24.20;;;7.40;;
81382;SDS011;70834;37.534;-122.308;2023-07-31T03:37:54;23.48;;;7.82;;
81382;SDS011;70834;37.534;-122.308;2023-07-31T03:40:16;30.30;;;7.60;;
81382;SDS011;70834;37.534;-122.308;2023-07-31T03:42:37;23.92;;;7.43;;
81382;SDS011;70834;37.534;-122.308;2023-07-31T03:44:59;19.05;;;7.20;;
81382;SDS011;70834;37.534;-122.308;2023-07-31T03:47:20;28.13;;;8.93;;
81382;SDS011;70834;37.534;-122.308;2023-07-31T03:49:41;28.88;;;7.95;;
81382;SDS011;70834;37.534;-122.308;2023-07-31T03:52:03;21.13;;;7.95;;
81382;SDS011;70834;37.534;-122.308;2023-07-31T03:54:25;29.83;;;8.00;;
81382;SDS011;70834;37.534;-122.308;2023-07-31T03:56:46;18.17;;;7.15;;
81382;SDS011;70834;37.534;-122.308;2023-07-31T03:59:07;29.38;;;8.75;;
81382;SDS011;70834;37.534;-122.308;2023-07-31T04:01:29;23.58;;;7.97;;
81382;SDS011;70834;37.534;-122.308;2023-07-31T04:03:50;21.60;;;6.88;;
81382;SDS011;70834;37.534;-122.308;2023-07-31T04:06:12;21.02;;;7.93;;
81382;SDS011;70834;37.534;-122.308;2023-07-31T04:08:33;21.15;;;7.75;;
81382;SDS011;70834;37.534;-122.308;2023-07-31T04:10:54;20.85;;;6.97;;
81382;SDS011;70834;37.534;-122.308;2023-07-31T04:13:16;24.38;;;8.77;;
81382;SDS011;70834;37.534;-122.308;2023-07-31T04:15:37;20.65;;;7.70;;
81382;SDS011;70834;37.534;-122.308;2023-07-31T04:17:59;21.70;;;7.05;;
81382;SDS011;70834;37.534;-122.308;2023-07-31T04:20:20;28.67;;;8.30;;
81382;SDS011;70834;37.534;-122.308;2023-07-31T04:22:41;21.67;;;7.25;;
81382;SDS011;70834;37.534;-122.308;2023-07-31T04:25:03;20.35;;;8.18;;
81382;SDS011;70834;37.534;-122.308;2023-07-31T04:27:25;28.33;;;8.10;;
81382;SDS011;70834;37.534;-122.308;2023-07-31T04:29:46;27.75;;;8.25;;
81382;SDS011;70834;37.534;-122.308;2023-07-31T04:32:08;17.13;;;6.68;;
81382;SDS011;70834;37.534;-122.308;2023-07-31T04:34:29;26.33;;;8.63;;
81382;SDS011;70834;37.534;-122.308;2023-07-31T04:36:51;23.75;;;7.70;;
81382;SDS011;70834;37.534;-122.308;2023-07-31T04:39:12;25.50;;;7.18;;
81382;SDS011;70834;37.534;-122.308;2023-07-31T04:41:34;29.90;;;8.65;;
81382;SDS011;70834;37.534;-122.308;2023-07-31T04:43:55;21.00;;;7.35;;
81382;SDS011;70834;37.534;-122.308;2023-07-31T04:46:16;21.30;;;8.05;;
81382;SDS011;70834;37.534;-122.308;2023-07-31T04:48:38;26.45;;;7.85;;
81382;SDS011;70834;37.534;-122.308;2023-07-31T04:50:59;23.27;;;7.82;;
81382;SDS011;70834;37.534;-122.308;2023-07-31T04:53:21;22.02;;;6.70;;
81382;SDS011;70834;37.534;-122.308;2023-07-31T04:55:42;26.67;;;8.27;;
81382;SDS011;70834;37.534;-122.308;2023-07-31T04:58:03;32.17;;;7.53;;
81382;SDS011;70834;37.534;-122.308;2023-07-31T05:00:25;21.02;;;6.60;;
81382;SDS011;70834;37.534;-122.308;2023-07-31T05:02:46;21.20;;;7.95;;
81382;SDS011;70834;37.534;-122.308;2023-07-31T05:05:08;17.05;;;7.13;;
81382;SDS011;70834;37.534;-122.308;2023-07-31T05:07:29;29.20;;;8.30;;
81382;SDS011;70834;37.534;-122.308;2023-07-31T05:09:51;20.17;;;7.53;;
81382;SDS011;70834;37.534;-122.308;2023-07-31T05:12:12;27.88;;;7.75;;
81382;SDS011;70834;37.534;-122.308;2023-07-31T05:14:33;25.83;;;7.40;;
81382;SDS011;70834;37.534;-122.308;2023-07-31T05:16:55;22.38;;;7.30;;
81382;SDS011;70834;37.534;-122.308;2023-07-31T05:19:16;21.08;;;7.93;;
81382;SDS011;70834;37.534;-122.308;2023-07-31T05:21:38;20.67;;;6.85;;
81382;SDS011;70834;37.534;-122.308;2023-07-31T05:23:59;27.30;;;8.65;;
81382;SDS011;70834;37.534;-122.308;2023-07-31T05:26:21;24.15;;;7.78;;
81382;SDS011;70834;37.534;-122.308;2023-07-31T05:28:42;22.58;;;8.15;;
81382;SDS011;70834;37.534;-122.308;2023-07-31T05:31:04;17.75;;;7.07;;
81382;SDS011;70834;37.534;-122.308;2023-07-31T05:33:26;27.88;;;9.05;;
81382;SDS011;70834;37.534;-122.308;2023-07-31T05:35:48;23.83;;;7.20;;
81382;SDS011;70834;37.534;-122.308;2023-07-31T05:38:09;21.77;;;7.57;;
81382;SDS011;70834;37.534;-122.308;2023-07-31T05:40:32;19.50;;;6.68;;
81382;SDS011;70834;37.534;-122.308;2023-07-31T05:42:54;22.70;;;7.13;;
81382;SDS011;70834;37.534;-122.308;2023-07-31T05:45:15;21.45;;;7.55;;
81382;SDS011;70834;37.534;-122.308;2023-07-31T05:47:36;24.58;;;7.70;;
81382;SDS011;70834;37.534;-122.308;2023-07-31T05:49:58;27.85;;;8.57;;
81382;SDS011;70834;37.534;-122.308;2023-07-31T05:52:19;22.33;;;7.57;;
81382;SDS011;70834;37.534;-122.308;2023-07-31T05:54:41;33.13;;;9.18;;
81382;SDS011;70834;37.534;-122.308;2023-07-31T05:57:03;25.17;;;8.68;;
81382;SDS011;70834;37.534;-122.308;2023-07-31T05:59:25;22.20;;;7.90;;
81382;SDS011;70834;37.534;-122.308;2023-07-31T06:01:46;24.17;;;8.02;;
81382;SDS011;70834;37.534;-122.308;2023-07-31T06:04:07;23.45;;;8.43;;
81382;SDS011;70834;37.534;-122.308;2023-07-31T06:06:29;21.25;;;7.70;;
81382;SDS011;70834;37.534;-122.308;2023-07-31T06:08:50;18.55;;;7.82;;
81382;SDS011;70834;37.534;-122.308;2023-07-31T06:11:12;21.17;;;7.53;;
81382;SDS011;70834;37.534;-122.308;2023-07-31T06:13:33;18.00;;;7.13;;
81382;SDS011;70834;37.534;-122.308;2023-07-31T06:15:55;23.20;;;7.50;;
81382;SDS011;70834;37.534;-122.308;2023-07-31T06:18:16;19.90;;;7.45;;
81382;SDS011;70834;37.534;-122.308;2023-07-31T06:20:38;20.20;;;7.80;;
81382;SDS011;70834;37.534;-122.308;2023-07-31T06:23:00;19.92;;;8.23;;
81382;SDS011;70834;37.534;-122.308;2023-07-31T06:25:22;18.15;;;7.70;;
81382;SDS011;70834;37.534;-122.308;2023-07-31T06:27:44;23.30;;;7.50;;
81382;SDS011;70834;37.534;-122.308;2023-07-31T06:30:05;27.42;;;8.90;;
81382;SDS011;70834;37.534;-122.308;2023-07-31T06:32:27;21.60;;;8.68;;
81382;SDS011;70834;37.534;-122.308;2023-07-31T06:34:49;19.15;;;7.25;;
81382;SDS011;70834;37.534;-122.308;2023-07-31T06:37:10;19.52;;;7.13;;
81382;SDS011;70834;37.534;-122.308;2023-07-31T06:39:31;21.25;;;8.60;;
81382;SDS011;70834;37.534;-122.308;2023-07-31T06:41:53;20.02;;;8.55;;
81382;SDS011;70834;37.534;-122.308;2023-07-31T06:44:14;23.13;;;7.53;;
81382;SDS011;70834;37.534;-122.308;2023-07-31T06:46:36;19.85;;;7.60;;
81382;SDS011;70834;37.534;-122.308;2023-07-31T06:48:58;23.75;;;8.20;;
81382;SDS011;70834;37.534;-122.308;2023-07-31T06:51:19;19.73;;;6.82;;
81382;SDS011;70834;37.534;-122.308;2023-07-31T06:53:41;21.08;;;8.02;;
81382;SDS011;70834;37.534;-122.308;2023-07-31T06:56:05;17.92;;;7.15;;
81382;SDS011;70834;37.534;-122.308;2023-07-31T06:58:26;19.75;;;7.78;;
81382;SDS011;70834;37.534;-122.308;2023-07-31T07:00:48;16.80;;;7.82;;
81382;SDS011;70834;37.534;-122.308;2023-07-31T07:03:10;15.23;;;7.57;;
81382;SDS011;70834;37.534;-122.308;2023-07-31T07:05:35;22.65;;;7.90;;
81382;SDS011;70834;37.534;-122.308;2023-07-31T07:07:56;25.45;;;8.10;;
81382;SDS011;70834;37.534;-122.308;2023-07-31T07:10:18;23.98;;;7.93;;
81382;SDS011;70834;37.534;-122.308;2023-07-31T07:12:39;25.30;;;8.13;;
81382;SDS011;70834;37.534;-122.308;2023-07-31T07:15:01;20.90;;;8.20;;
81382;SDS011;70834;37.534;-122.308;2023-07-31T07:17:23;18.67;;;7.53;;
81382;SDS011;70834;37.534;-122.308;2023-07-31T07:19:45;24.42;;;7.53;;
81382;SDS011;70834;37.534;-122.308;2023-07-31T07:22:08;19.88;;;7.28;;
81382;SDS011;70834;37.534;-122.308;2023-07-31T07:24:30;19.10;;;7.32;;
81382;SDS011;70834;37.534;-122.308;2023-07-31T07:26:51;19.27;;;7.45;;
81382;SDS011;70834;37.534;-122.308;2023-07-31T07:29:13;18.90;;;7.43;;
81382;SDS011;70834;37.534;-122.308;2023-07-31T07:31:34;17.85;;;7.15;;
81382;SDS011;70834;37.534;-122.308;2023-07-31T07:33:56;19.48;;;7.88;;
81382;SDS011;70834;37.534;-122.308;2023-07-31T07:36:17;23.52;;;8.57;;
81382;SDS011;70834;37.534;-122.308;2023-07-31T07:38:39;24.15;;;7.72;;
81382;SDS011;70834;37.534;-122.308;2023-07-31T07:41:01;18.95;;;6.78;;
81382;SDS011;70834;37.534;-122.308;2023-07-31T07:43:23;19.15;;;7.72;;
81382;SDS011;70834;37.534;-122.308;2023-07-31T07:45:44;22.25;;;7.55;;
81382;SDS011;70834;37.534;-122.308;2023-07-31T07:48:06;23.35;;;8.00;;
81382;SDS011;70834;37.534;-122.308;2023-07-31T07:50:27;22.20;;;8.95;;
81382;SDS011;70834;37.534;-122.308;2023-07-31T07:52:48;22.02;;;7.72;;
81382;SDS011;70834;37.534;-122.308;2023-07-31T07:55:10;22.92;;;8.20;;
81382;SDS011;70834;37.534;-122.308;2023-07-31T07:57:31;19.48;;;8.15;;
81382;SDS011;70834;37.534;-122.308;2023-07-31T07:59:53;23.30;;;8.20;;
81382;SDS011;70834;37.534;-122.308;2023-07-31T08:02:14;20.20;;;8.55;;
81382;SDS011;70834;37.534;-122.308;2023-07-31T08:04:36;19.80;;;8.10;;
81382;SDS011;70834;37.534;-122.308;2023-07-31T08:06:57;29.85;;;9.63;;
81382;SDS011;70834;37.534;-122.308;2023-07-31T08:09:18;25.17;;;8.90;;
81382;SDS011;70834;37.534;-122.308;2023-07-31T08:11:40;24.08;;;7.90;;
81382;SDS011;70834;37.534;-122.308;2023-07-31T08:14:01;24.73;;;7.32;;
81382;SDS011;70834;37.534;-122.308;2023-07-31T08:16:23;24.48;;;8.18;;
81382;SDS011;70834;37.534;-122.308;2023-07-31T08:18:44;26.52;;;9.52;;
81382;SDS011;70834;37.534;-122.308;2023-07-31T08:21:06;25.30;;;8.20;;
81382;SDS011;70834;37.534;-122.308;2023-07-31T08:23:27;22.25;;;7.97;;
81382;SDS011;70834;37.534;-122.308;2023-07-31T08:25:48;31.02;;;10.27;;
81382;SDS011;70834;37.534;-122.308;2023-07-31T08:28:10;25.30;;;7.63;;
81382;SDS011;70834;37.534;-122.308;2023-07-31T08:30:32;30.90;;;9.00;;
81382;SDS011;70834;37.534;-122.308;2023-07-31T08:32:54;23.75;;;8.90;;
81382;SDS011;70834;37.534;-122.308;2023-07-31T08:35:15;25.15;;;9.50;;
81382;SDS011;70834;37.534;-122.308;2023-07-31T08:37:37;20.23;;;8.38;;
81382;SDS011;70834;37.534;-122.308;2023-07-31T08:39:59;23.65;;;7.70;;
81382;SDS011;70834;37.534;-122.308;2023-07-31T08:42:20;24.05;;;8.40;;
81382;SDS011;70834;37.534;-122.308;2023-07-31T08:44:42;24.20;;;8.63;;
81382;SDS011;70834;37.534;-122.308;2023-07-31T08:47:05;21.90;;;8.02;;
81382;SDS011;70834;37.534;-122.308;2023-07-31T08:49:27;28.85;;;8.55;;
81382;SDS011;70834;37.534;-122.308;2023-07-31T08:51:50;27.55;;;8.75;;
81382;SDS011;70834;37.534;-122.308;2023-07-31T08:54:12;23.35;;;6.60;;
81382;SDS011;70834;37.534;-122.308;2023-07-31T08:56:34;21.05;;;7.80;;
81382;SDS011;70834;37.534;-122.308;2023-07-31T08:58:57;30.55;;;8.52;;
81382;SDS011;70834;37.534;-122.308;2023-07-31T09:04:39;29.50;;;9.07;;
81382;SDS011;70834;37.534;-122.308;2023-07-31T09:07:02;23.60;;;7.53;;
81382;SDS011;70834;37.534;-122.308;2023-07-31T09:09:24;26.38;;;7.70;;
81382;SDS011;70834;37.534;-122.308;2023-07-31T09:11:46;26.70;;;8.88;;
81382;SDS011;70834;37.534;-122.308;2023-07-31T09:14:08;19.98;;;7.72;;
81382;SDS011;70834;37.534;-122.308;2023-07-31T09:16:30;22.77;;;8.02;;
81382;SDS011;70834;37.534;-122.308;2023-07-31T09:18:54;22.75;;;7.35;;
81382;SDS011;70834;37.534;-122.308;2023-07-31T09:21:17;24.45;;;7.43;;
81382;SDS011;70834;37.534;-122.308;2023-07-31T09:23:42;31.98;;;9.15;;
81382;SDS011;70834;37.534;-122.308;2023-07-31T09:28:30;22.25;;;7.22;;
81382;SDS011;70834;37.534;-122.308;2023-07-31T09:30:52;23.52;;;7.50;;
81382;SDS011;70834;37.534;-122.308;2023-07-31T09:33:13;24.40;;;8.57;;
81382;SDS011;70834;37.534;-122.308;2023-07-31T09:35:35;31.90;;;9.27;;
81382;SDS011;70834;37.534;-122.308;2023-07-31T09:38:07;26.58;;;8.45;;
81382;SDS011;70834;37.534;-122.308;2023-07-31T09:40:33;26.10;;;8.55;;
81382;SDS011;70834;37.534;-122.308;2023-07-31T09:42:59;28.55;;;8.77;;
81382;SDS011;70834;37.534;-122.308;2023-07-31T09:45:23;21.20;;;7.70;;
81382;SDS011;70834;37.534;-122.308;2023-07-31T09:47:48;33.45;;;8.32;;
81382;SDS011;70834;37.534;-122.308;2023-07-31T09:50:09;27.30;;;7.72;;
81382;SDS011;70834;37.534;-122.308;2023-07-31T09:52:31;28.33;;;7.93;;
81382;SDS011;70834;37.534;-122.308;2023-07-31T09:54:52;30.35;;;7.45;;
81382;SDS011;70834;37.534;-122.308;2023-07-31T09:57:14;26.88;;;8.10;;
81382;SDS011;70834;37.534;-122.308;2023-07-31T09:59:39;29.33;;;7.68;;
81382;SDS011;70834;37.534;-122.308;2023-07-31T10:02:01;23.90;;;7.43;;
81382;SDS011;70834;37.534;-122.308;2023-07-31T10:04:22;20.08;;;6.85;;
81382;SDS011;70834;37.534;-122.308;2023-07-31T10:06:47;21.08;;;7.43;;
81382;SDS011;70834;37.534;-122.308;2023-07-31T10:09:11;22.23;;;7.43;;
81382;SDS011;70834;37.534;-122.308;2023-07-31T10:11:46;20.70;;;7.22;;
81382;SDS011;70834;37.534;-122.308;2023-07-31T10:14:11;24.85;;;8.73;;
81382;SDS011;70834;37.534;-122.308;2023-07-31T10:16:33;26.60;;;8.18;;
81382;SDS011;70834;37.534;-122.308;2023-07-31T10:18:58;26.42;;;8.02;;
81382;SDS011;70834;37.534;-122.308;2023-07-31T10:21:20;18.98;;;7.07;;
81382;SDS011;70834;37.534;-122.308;2023-07-31T10:23:42;27.60;;;8.35;;
81382;SDS011;70834;37.534;-122.308;2023-07-31T10:26:04;28.98;;;8.90;;
81382;SDS011;70834;37.534;-122.308;2023-07-31T10:28:28;25.85;;;7.72;;
81382;SDS011;70834;37.534;-122.308;2023-07-31T10:30:51;24.42;;;8.32;;
81382;SDS011;70834;37.534;-122.308;2023-07-31T10:33:13;25.70;;;8.30;;
81382;SDS011;70834;37.534;-122.308;2023-07-31T10:35:36;25.63;;;9.30;;
81382;SDS011;70834;37.534;-122.308;2023-07-31T10:38:08;23.95;;;8.32;;
81382;SDS011;70834;37.534;-122.308;2023-07-31T10:40:33;22.47;;;7.57;;
81382;SDS011;70834;37.534;-122.308;2023-07-31T10:42:56;27.80;;;8.40;;
81382;SDS011;70834;37.534;-122.308;2023-07-31T10:47:51;23.55;;;8.63;;
81382;SDS011;70834;37.534;-122.308;2023-07-31T10:50:21;25.42;;;7.97;;
81382;SDS011;70834;37.534;-122.308;2023-07-31T10:52:46;23.30;;;8.65;;
81382;SDS011;70834;37.534;-122.308;2023-07-31T10:55:24;20.00;;;8.25;;
81382;SDS011;70834;37.534;-122.308;2023-07-31T10:57:50;25.75;;;8.15;;
81382;SDS011;70834;37.534;-122.308;2023-07-31T11:00:28;22.77;;;8.38;;
81382;SDS011;70834;37.534;-122.308;2023-07-31T11:02:57;18.88;;;8.52;;
81382;SDS011;70834;37.534;-122.308;2023-07-31T11:05:19;23.05;;;8.57;;
81382;SDS011;70834;37.534;-122.308;2023-07-31T11:07:49;24.65;;;8.05;;
81382;SDS011;70834;37.534;-122.308;2023-07-31T11:10:10;28.48;;;8.95;;
81382;SDS011;70834;37.534;-122.308;2023-07-31T11:12:31;24.10;;;8.40;;
81382;SDS011;70834;37.534;-122.308;2023-07-31T11:14:56;21.27;;;8.52;;
81382;SDS011;70834;37.534;-122.308;2023-07-31T11:17:18;26.30;;;10.02;;
81382;SDS011;70834;37.534;-122.308;2023-07-31T11:19:39;23.27;;;8.88;;
81382;SDS011;70834;37.534;-122.308;2023-07-31T11:22:01;31.70;;;9.80;;
81382;SDS011;70834;37.534;-122.308;2023-07-31T11:24:24;28.50;;;9.43;;
81382;SDS011;70834;37.534;-122.308;2023-07-31T11:26:49;26.52;;;8.77;;
81382;SDS011;70834;37.534;-122.308;2023-07-31T11:29:13;23.92;;;9.50;;
81382;SDS011;70834;37.534;-122.308;2023-07-31T11:31:37;26.00;;;10.85;;
81382;SDS011;70834;37.534;-122.308;2023-07-31T11:34:06;25.45;;;8.70;;
81382;SDS011;70834;37.534;-122.308;2023-07-31T11:36:28;25.75;;;9.32;;
81382;SDS011;70834;37.534;-122.308;2023-07-31T11:38:49;26.98;;;8.77;;
81382;SDS011;70834;37.534;-122.308;2023-07-31T11:41:13;28.05;;;9.77;;
81382;SDS011;70834;37.534;-122.308;2023-07-31T11:43:36;23.33;;;8.57;;
81382;SDS011;70834;37.534;-122.308;2023-07-31T11:45:58;20.98;;;8.80;;
81382;SDS011;70834;37.534;-122.308;2023-07-31T11:48:26;24.88;;;9.43;;
81382;SDS011;70834;37.534;-122.308;2023-07-31T11:50:50;26.15;;;9.25;;
81382;SDS011;70834;37.534;-122.308;2023-07-31T11:53:12;32.15;;;9.05;;
81382;SDS011;70834;37.534;-122.308;2023-07-31T11:55:34;31.30;;;9.90;;
81382;SDS011;70834;37.534;-122.308;2023-07-31T11:57:57;30.98;;;9.50;;
81382;SDS011;70834;37.534;-122.308;2023-07-31T12:00:19;24.83;;;9.70;;
81382;SDS011;70834;37.534;-122.308;2023-07-31T12:02:41;27.00;;;10.18;;
81382;SDS011;70834;37.534;-122.308;2023-07-31T12:05:03;31.98;;;10.25;;
81382;SDS011;70834;37.534;-122.308;2023-07-31T12:07:25;21.63;;;9.50;;
81382;SDS011;70834;37.534;-122.308;2023-07-31T12:09:56;25.73;;;10.35;;
81382;SDS011;70834;37.534;-122.308;2023-07-31T12:12:25;24.48;;;9.48;;
81382;SDS011;70834;37.534;-122.308;2023-07-31T12:14:47;31.65;;;9.85;;
81382;SDS011;70834;37.534;-122.308;2023-07-31T12:17:09;26.70;;;10.13;;
81382;SDS011;70834;37.534;-122.308;2023-07-31T12:19:30;27.27;;;9.52;;
81382;SDS011;70834;37.534;-122.308;2023-07-31T12:21:52;25.88;;;10.10;;
81382;SDS011;70834;37.534;-122.308;2023-07-31T12:24:14;31.88;;;10.15;;
81382;SDS011;70834;37.534;-122.308;2023-07-31T12:26:35;26.23;;;10.27;;
81382;SDS011;70834;37.534;-122.308;2023-07-31T12:28:57;27.65;;;10.30;;
81382;SDS011;70834;37.534;-122.308;2023-07-31T12:31:19;27.33;;;9.60;;
81382;SDS011;70834;37.534;-122.308;2023-07-31T12:33:42;28.25;;;9.70;;
81382;SDS011;70834;37.534;-122.308;2023-07-31T12:36:07;26.77;;;9.75;;
81382;SDS011;70834;37.534;-122.308;2023-07-31T12:38:35;31.27;;;10.32;;
81382;SDS011;70834;37.534;-122.308;2023-07-31T12:40:57;28.58;;;9.60;;
81382;SDS011;70834;37.534;-122.308;2023-07-31T12:43:19;30.92;;;9.82;;
81382;SDS011;70834;37.534;-122.308;2023-07-31T12:45:40;28.45;;;9.48;;
81382;SDS011;70834;37.534;-122.308;2023-07-31T12:48:01;27.17;;;9.65;;
81382;SDS011;70834;37.534;-122.308;2023-07-31T12:50:23;26.48;;;9.80;;
81382;SDS011;70834;37.534;-122.308;2023-07-31T12:52:45;27.85;;;10.68;;
81382;SDS011;70834;37.534;-122.308;2023-07-31T12:55:07;34.08;;;10.30;;
81382;SDS011;70834;37.534;-122.308;2023-07-31T12:57:29;31.42;;;9.63;;
81382;SDS011;70834;37.534;-122.308;2023-07-31T12:59:50;28.73;;;10.70;;
81382;SDS011;70834;37.534;-122.308;2023-07-31T13:02:12;30.63;;;10.35;;
81382;SDS011;70834;37.534;-122.308;2023-07-31T13:04:33;34.60;;;10.40;;
81382;SDS011;70834;37.534;-122.308;2023-07-31T13:06:55;30.35;;;11.02;;
81382;SDS011;70834;37.534;-122.308;2023-07-31T13:09:16;27.73;;;10.48;;
81382;SDS011;70834;37.534;-122.308;2023-07-31T13:11:38;28.27;;;10.15;;
81382;SDS011;70834;37.534;-122.308;2023-07-31T13:13:59;24.17;;;9.85;;
81382;SDS011;70834;37.534;-122.308;2023-07-31T13:16:21;31.23;;;10.07;;
81382;SDS011;70834;37.534;-122.308;2023-07-31T13:18:42;26.60;;;10.18;;
81382;SDS011;70834;37.534;-122.308;2023-07-31T13:21:04;28.27;;;10.27;;
81382;SDS011;70834;37.534;-122.308;2023-07-31T13:23:25;32.88;;;10.82;;
81382;SDS011;70834;37.534;-122.308;2023-07-31T13:25:46;30.10;;;10.63;;
81382;SDS011;70834;37.534;-122.308;2023-07-31T13:28:08;31.88;;;10.43;;
81382;SDS011;70834;37.534;-122.308;2023-07-31T13:30:30;26.88;;;11.15;;
81382;SDS011;70834;37.534;-122.308;2023-07-31T13:32:51;26.65;;;10.45;;
81382;SDS011;70834;37.534;-122.308;2023-07-31T13:35:13;28.20;;;10.93;;
81382;SDS011;70834;37.534;-122.308;2023-07-31T13:37:34;29.35;;;9.90;;
81382;SDS011;70834;37.534;-122.308;2023-07-31T13:39:56;34.30;;;11.75;;
81382;SDS011;70834;37.534;-122.308;2023-07-31T13:42:17;29.42;;;9.70;;
81382;SDS011;70834;37.534;-122.308;2023-07-31T13:44:39;31.88;;;10.50;;